createdAt,value
2019-04-29T00:02:06.366Z,99937.19
2019-04-29T00:04:35.752Z,99939.09
2019-04-29T00:07:05.268Z,99932.17
2019-04-29T00:09:34.418Z,99940.00
2019-04-29T00:12:03.734Z,99947.93
2019-04-29T00:14:34.203Z,99943.69
2019-04-29T00:17:21.091Z,99953.73
2019-04-29T00:20:00.928Z,99951.70
2019-04-29T00:22:30.132Z,99960.09
2019-04-29T00:24:59.377Z,99963.74
2019-04-29T00:27:28.526Z,99961.09
2019-04-29T00:29:57.755Z,99962.52
2019-04-29T00:32:27.102Z,99975.46
2019-04-29T00:34:56.369Z,99967.42
2019-04-29T00:37:39.056Z,99971.81
2019-04-29T00:40:09.861Z,99973.13
2019-04-29T00:42:40.727Z,99980.70
2019-04-29T00:45:10.092Z,99981.95
2019-04-29T00:47:39.307Z,99978.80
2019-04-29T00:50:08.481Z,99977.92
2019-04-29T00:52:37.794Z,99978.11
2019-04-29T00:55:17.322Z,99973.45
2019-04-29T00:57:46.526Z,99968.98
2019-04-29T01:00:17.433Z,99967.91
2019-04-29T01:02:46.617Z,99969.72
2019-04-29T01:05:15.887Z,99971.84
2019-04-29T01:07:45.109Z,99969.07
2019-04-29T01:10:14.643Z,99967.64
2019-04-29T01:12:43.895Z,99962.77
2019-04-29T01:15:13.347Z,99973.09
2019-04-29T01:17:42.559Z,99969.16
2019-04-29T01:20:11.903Z,99966.34
2019-04-29T01:22:42.246Z,99963.91
2019-04-29T01:25:11.458Z,99971.89
2019-04-29T01:27:48.289Z,99968.71
2019-04-29T01:30:41.746Z,99976.38
2019-04-29T01:33:11.008Z,99978.42
2019-04-29T01:35:40.282Z,99986.45
2019-04-29T01:38:09.545Z,99988.80
2019-04-29T01:40:40.345Z,99987.93
2019-04-29T01:43:09.627Z,99990.52
2019-04-29T01:45:38.886Z,99994.95
2019-04-29T01:48:08.164Z,99991.63
2019-04-29T01:50:37.440Z,100003.60
2019-04-29T01:53:06.625Z,100008.73
2019-04-29T01:55:35.880Z,100012.38
2019-04-29T01:58:05.188Z,100016.86
2019-04-29T02:00:34.393Z,100018.28
2019-04-29T02:03:03.727Z,100017.88
2019-04-29T02:05:32.975Z,100010.33
2019-04-29T02:08:02.128Z,100007.33
2019-04-29T02:10:33.015Z,100007.97
2019-04-29T02:13:02.230Z,100017.91
2019-04-29T02:15:31.536Z,100019.87
2019-04-29T02:18:00.693Z,100019.09
2019-04-29T02:20:29.848Z,100012.39
2019-04-29T02:23:03.702Z,100008.84
2019-04-29T02:25:43.280Z,100012.39
2019-04-29T02:28:12.646Z,100014.75
2019-04-29T02:30:44.164Z,100017.45
2019-04-29T02:33:13.315Z,100016.42
2019-04-29T02:35:42.510Z,100017.91
2019-04-29T02:38:28.243Z,100017.28
2019-04-29T02:40:59.188Z,100022.81
2019-04-29T02:43:30.143Z,100027.37
2019-04-29T02:45:59.351Z,100022.89
2019-04-29T02:48:34.024Z,100025.24
2019-04-29T02:50:59.651Z,100029.64
2019-04-29T02:53:28.865Z,100030.84
2019-04-29T02:55:59.875Z,100031.79
2019-04-29T02:58:33.919Z,100029.09
2019-04-29T03:01:16.610Z,100033.13
2019-04-29T03:03:47.667Z,100031.77
2019-04-29T03:06:16.794Z,100028.59
2019-04-29T03:08:46.116Z,100020.64
2019-04-29T03:11:16.945Z,100025.69
2019-04-29T03:13:46.199Z,100021.31
2019-04-29T03:16:15.501Z,100018.48
2019-04-29T03:18:49.099Z,100019.73
2019-04-29T03:21:19.981Z,100023.98
2019-04-29T03:23:49.966Z,100022.41
2019-04-29T03:26:19.209Z,100033.27
2019-04-29T03:28:48.372Z,100036.56
2019-04-29T03:31:17.598Z,100034.48
2019-04-29T03:33:46.743Z,100037.58
2019-04-29T03:36:15.956Z,100034.98
2019-04-29T03:38:45.207Z,100042.24
2019-04-29T03:41:14.435Z,100046.83
2019-04-29T03:43:43.622Z,100051.63
2019-04-29T03:46:12.782Z,100059.96
2019-04-29T03:48:42.027Z,100053.39
2019-04-29T03:51:11.408Z,100054.03
2019-04-29T03:53:41.032Z,100052.38
2019-04-29T03:56:10.581Z,100049.23
2019-04-29T03:58:40.158Z,100057.69
2019-04-29T04:01:11.329Z,100052.66
2019-04-29T04:03:42.563Z,100057.17
2019-04-29T04:06:19.388Z,100057.58
2019-04-29T04:09:05.652Z,100060.84
2019-04-29T04:11:24.160Z,100059.67
2019-04-29T04:13:53.473Z,100062.58
2019-04-29T04:16:30.619Z,100069.19
2019-04-29T04:19:07.167Z,100072.19
2019-04-29T04:21:36.729Z,100074.94
2019-04-29T04:24:06.220Z,100077.54
2019-04-29T04:26:35.627Z,100076.58
2019-04-29T04:29:05.225Z,100083.66
2019-04-29T04:31:34.855Z,100084.59
2019-04-29T04:34:04.457Z,100085.30
2019-04-29T04:36:33.783Z,100090.80
2019-04-29T04:39:03.282Z,100092.46
2019-04-29T04:41:33.148Z,100085.20
2019-04-29T04:44:02.774Z,100092.23
2019-04-29T04:46:32.327Z,100090.39
2019-04-29T04:49:02.344Z,100091.91
2019-04-29T04:51:31.828Z,100092.92
2019-04-29T04:54:01.339Z,100089.22
2019-04-29T04:56:30.829Z,100096.52
2019-04-29T04:59:00.404Z,100095.31
2019-04-29T05:01:29.716Z,100098.45
2019-04-29T05:03:59.332Z,100095.53
2019-04-29T05:06:28.862Z,100100.34
2019-04-29T05:08:58.197Z,100096.59
2019-04-29T05:11:27.770Z,100102.59
2019-04-29T05:13:57.620Z,100101.76
2019-04-29T05:16:27.352Z,100100.70
2019-04-29T05:18:57.102Z,100101.98
2019-04-29T05:21:26.841Z,100111.14
2019-04-29T05:23:56.144Z,100103.70
2019-04-29T05:26:25.521Z,100109.98
2019-04-29T05:28:55.141Z,100109.91
2019-04-29T05:31:24.874Z,100101.66
2019-04-29T05:33:54.593Z,100107.60
2019-04-29T05:36:25.763Z,100109.25
2019-04-29T05:38:56.941Z,100115.69
2019-04-29T05:41:30.167Z,100113.99
2019-04-29T05:44:05.672Z,100115.77
2019-04-29T05:46:37.181Z,100120.72
2019-04-29T05:49:09.099Z,100117.59
2019-04-29T05:51:40.534Z,100126.31
2019-04-29T05:54:26.837Z,100130.14
2019-04-29T05:56:55.365Z,100133.59
2019-04-29T05:59:25.467Z,100142.44
2019-04-29T06:01:55.328Z,100140.90
2019-04-29T06:04:28.430Z,100140.78
2019-04-29T06:06:56.633Z,100140.31
2019-04-29T06:09:26.535Z,100139.75
2019-04-29T06:11:55.927Z,100146.27
2019-04-29T06:14:25.196Z,100145.79
2019-04-29T06:16:57.504Z,100150.04
2019-04-29T06:19:26.036Z,100148.49
2019-04-29T06:21:55.579Z,100145.45
2019-04-29T06:24:25.023Z,100144.27
2019-04-29T06:26:54.373Z,100147.05
2019-04-29T06:29:23.756Z,100147.92
2019-04-29T06:31:53.284Z,100147.95
2019-04-29T06:34:23.192Z,100147.02
2019-04-29T06:36:52.935Z,100133.78
2019-04-29T06:39:22.396Z,100145.87
2019-04-29T06:41:51.803Z,100143.19
2019-04-29T06:44:21.585Z,100147.03
2019-04-29T06:46:54.605Z,100148.13
2019-04-29T06:49:22.887Z,100146.52
2019-04-29T06:51:52.813Z,100147.77
2019-04-29T06:54:22.695Z,100142.63
2019-04-29T06:56:52.584Z,100143.20
2019-04-29T06:59:22.199Z,100142.92
2019-04-29T07:01:52.067Z,100144.28
2019-04-29T07:04:21.577Z,100144.64
2019-04-29T07:06:57.735Z,100155.84
2019-04-29T07:09:23.181Z,100166.81
2019-04-29T07:11:52.874Z,100162.84
2019-04-29T07:14:22.880Z,100168.29
2019-04-29T07:16:52.567Z,100175.41
2019-04-29T07:19:26.703Z,100168.48
2019-04-29T07:21:56.512Z,100176.63
2019-04-29T07:24:25.942Z,100181.98
2019-04-29T07:26:57.763Z,100178.42
2019-04-29T07:29:30.876Z,100179.52
2019-04-29T07:32:00.505Z,100183.84
2019-04-29T07:35:09.809Z,100184.31
2019-04-29T07:37:38.939Z,100180.92
2019-04-29T07:40:09.471Z,100187.82
2019-04-29T07:42:39.326Z,100183.74
2019-04-29T07:45:28.135Z,100189.72
2019-04-29T07:48:01.830Z,100187.31
2019-04-29T07:50:30.424Z,100181.39
2019-04-29T07:53:00.496Z,100181.52
2019-04-29T07:55:31.381Z,100187.09
2019-04-29T07:58:02.424Z,100186.98
2019-04-29T08:00:35.028Z,100186.00
2019-04-29T08:03:06.555Z,100187.27
2019-04-29T08:05:36.400Z,100190.16
2019-04-29T08:08:06.648Z,100197.08
2019-04-29T08:10:36.530Z,100191.73
2019-04-29T08:13:06.676Z,100191.84
2019-04-29T08:15:41.073Z,100192.44
2019-04-29T08:18:11.347Z,100193.42
2019-04-29T08:20:41.471Z,100191.30
2019-04-29T08:23:11.797Z,100190.92
2019-04-29T08:25:41.332Z,100194.79
2019-04-29T08:28:11.359Z,100189.31
2019-04-29T08:30:41.762Z,100195.67
2019-04-29T08:33:13.278Z,100192.48
2019-04-29T08:35:43.221Z,100186.70
2019-04-29T08:38:13.259Z,100187.16
2019-04-29T08:40:45.083Z,100183.48
2019-04-29T08:43:20.581Z,100187.00
2019-04-29T08:45:49.943Z,100189.69
2019-04-29T08:48:19.755Z,100183.09
2019-04-29T08:50:49.811Z,100179.14
2019-04-29T08:53:19.995Z,100174.58
2019-04-29T08:55:49.931Z,100170.00
2019-04-29T08:58:20.220Z,100167.09
2019-04-29T09:00:51.353Z,100158.58
2019-04-29T09:03:24.308Z,100152.87
2019-04-29T09:06:05.166Z,100148.59
2019-04-29T09:08:28.788Z,100144.28
2019-04-29T09:10:57.998Z,100138.16
2019-04-29T09:13:28.958Z,100134.30
2019-04-29T09:15:59.580Z,100133.07
2019-04-29T09:18:29.800Z,100133.95
2019-04-29T09:21:00.184Z,100123.59
2019-04-29T09:23:34.512Z,100123.34
2019-04-29T09:26:18.776Z,100121.45
2019-04-29T09:28:49.934Z,100120.39
2019-04-29T09:31:20.357Z,100109.88
2019-04-29T09:33:55.293Z,100109.34
2019-04-29T09:36:23.011Z,100112.61
2019-04-29T09:38:53.768Z,100110.85
2019-04-29T09:41:35.019Z,100104.86
2019-04-29T09:44:08.542Z,100112.91
2019-04-29T09:46:38.915Z,100103.22
2019-04-29T09:49:09.880Z,100099.78
2019-04-29T09:51:40.127Z,100107.59
2019-04-29T09:54:14.696Z,100101.11
2019-04-29T09:56:42.929Z,100103.91
2019-04-29T09:59:24.092Z,100101.07
2019-04-29T10:01:59.160Z,100095.41
2019-04-29T10:04:33.490Z,100091.15
2019-04-29T10:07:04.713Z,100094.35
2019-04-29T10:09:34.994Z,100091.17
2019-04-29T10:12:05.344Z,100090.39
2019-04-29T10:14:35.450Z,100085.50
2019-04-29T10:17:25.465Z,100086.91
2019-04-29T10:19:57.433Z,100077.97
2019-04-29T10:22:27.031Z,100081.67
2019-04-29T10:24:57.673Z,100082.19
2019-04-29T10:27:27.946Z,100077.13
2019-04-29T10:29:58.549Z,100077.47
2019-04-29T10:32:29.119Z,100069.46
2019-04-29T10:35:03.678Z,100070.52
2019-04-29T10:37:32.667Z,100066.72
2019-04-29T10:40:14.609Z,100064.08
2019-04-29T10:42:46.420Z,100058.55
2019-04-29T10:45:19.727Z,100051.56
2019-04-29T10:47:54.462Z,100051.53
2019-04-29T10:50:29.119Z,100054.55
2019-04-29T10:52:59.254Z,100051.35
2019-04-29T10:55:31.627Z,100047.31
2019-04-29T10:58:01.321Z,100053.86
2019-04-29T11:01:01.796Z,100051.20
2019-04-29T11:03:32.007Z,100054.19
2019-04-29T11:06:02.274Z,100044.14
2019-04-29T11:08:38.298Z,100044.55
2019-04-29T11:11:22.101Z,100040.54
2019-04-29T11:13:48.019Z,100041.45
2019-04-29T11:16:15.666Z,100032.87
2019-04-29T11:18:45.833Z,100027.21
2019-04-29T11:21:16.040Z,100027.28
2019-04-29T11:23:50.776Z,100021.92
2019-04-29T11:26:33.169Z,100017.04
2019-04-29T11:29:06.220Z,100013.38
2019-04-29T11:31:37.240Z,100009.15
2019-04-29T11:34:15.956Z,100004.84
2019-04-29T11:36:46.296Z,100002.59
2019-04-29T11:39:16.815Z,100001.77
2019-04-29T11:41:49.939Z,100001.58
2019-04-29T11:44:22.005Z,99992.50
2019-04-29T11:46:51.337Z,99995.58
2019-04-29T11:49:23.178Z,99991.48
2019-04-29T11:52:08.553Z,99990.58
2019-04-29T11:54:25.468Z,99988.16
2019-04-29T11:56:56.214Z,99978.70
2019-04-29T11:59:31.698Z,99985.44
2019-04-29T12:02:23.467Z,99970.48
2019-04-29T12:04:55.584Z,99971.63
2019-04-29T12:07:31.708Z,99965.71
2019-04-29T12:10:02.170Z,99967.33
2019-04-29T12:12:30.008Z,99973.95
2019-04-29T12:15:13.768Z,99961.41
2019-04-29T12:17:45.184Z,99961.70
2019-04-29T12:20:26.162Z,99958.58
2019-04-29T12:22:56.614Z,99956.84
2019-04-29T12:25:28.982Z,99958.36
2019-04-29T12:28:01.649Z,99950.08
2019-04-29T12:30:34.791Z,99941.32
2019-04-29T12:33:10.072Z,99947.44
2019-04-29T12:35:51.590Z,99945.29
2019-04-29T12:38:19.360Z,99943.26
2019-04-29T12:41:20.232Z,99945.96
2019-04-29T12:43:54.011Z,99935.20
2019-04-29T12:46:26.402Z,99930.23
2019-04-29T12:48:56.967Z,99928.66
2019-04-29T12:51:27.360Z,99927.13
2019-04-29T12:53:57.835Z,99923.08
2019-04-29T12:56:29.750Z,99919.32
2019-04-29T12:59:01.465Z,99910.55
2019-04-29T13:01:50.852Z,99902.87
2019-04-29T13:04:10.724Z,99906.62
2019-04-29T13:06:57.294Z,99903.04
2019-04-29T13:09:45.377Z,99902.74
2019-04-29T13:12:19.313Z,99900.57
2019-04-29T13:15:02.650Z,99890.73
2019-04-29T13:17:26.544Z,99895.07
2019-04-29T13:20:02.092Z,99891.98
2019-04-29T13:22:31.937Z,99888.39
2019-04-29T13:25:02.250Z,99879.83
2019-04-29T13:27:32.362Z,99876.83
2019-04-29T13:30:06.651Z,99883.44
2019-04-29T13:32:35.669Z,99878.25
2019-04-29T13:35:10.898Z,99873.06
2019-04-29T13:37:41.368Z,99876.78
2019-04-29T13:40:11.518Z,99876.03
2019-04-29T13:42:48.655Z,99870.50
2019-04-29T13:45:14.320Z,99867.73
2019-04-29T13:47:50.472Z,99864.66
2019-04-29T13:50:37.942Z,99872.56
2019-04-29T13:52:55.138Z,99867.52
2019-04-29T13:55:47.152Z,99878.64
2019-04-29T13:57:57.695Z,99866.95
2019-04-29T14:00:27.500Z,99874.90
2019-04-29T14:03:02.027Z,99870.15
2019-04-29T14:05:36.684Z,99868.41
2019-04-29T14:08:04.779Z,99864.17
2019-04-29T14:10:35.038Z,99873.66
2019-04-29T14:13:11.927Z,99869.64
2019-04-29T14:15:40.340Z,99864.19
2019-04-29T14:18:11.806Z,99866.31
2019-04-29T14:20:41.404Z,99859.08
2019-04-29T14:23:11.985Z,99853.93
2019-04-29T14:25:42.102Z,99855.01
2019-04-29T14:28:12.985Z,99847.66
2019-04-29T14:30:47.639Z,99854.63
2019-04-29T14:33:19.115Z,99857.40
2019-04-29T14:35:51.300Z,99854.84
2019-04-29T14:38:24.287Z,99864.03
2019-04-29T14:40:53.842Z,99849.49
2019-04-29T14:43:41.960Z,99853.17
2019-04-29T14:46:25.542Z,99854.80
2019-04-29T14:49:05.804Z,99854.08
2019-04-29T14:51:36.902Z,99855.42
2019-04-29T14:54:07.553Z,99849.48
2019-04-29T14:56:38.109Z,99851.20
2019-04-29T14:59:08.636Z,99856.98
2019-04-29T15:01:43.440Z,99857.70
2019-04-29T15:04:19.183Z,99851.28
2019-04-29T15:06:47.360Z,99857.05
2019-04-29T15:09:19.929Z,99851.27
2019-04-29T15:12:09.459Z,99852.97
2019-04-29T15:14:54.603Z,99856.19
2019-04-29T15:17:40.414Z,99853.94
2019-04-29T15:20:12.841Z,99849.21
2019-04-29T15:22:43.114Z,99848.14
2019-04-29T15:25:16.815Z,99845.27
2019-04-29T15:27:45.620Z,99842.56
2019-04-29T15:30:16.111Z,99837.77
2019-04-29T15:32:46.272Z,99840.85
2019-04-29T15:35:19.869Z,99840.34
2019-04-29T15:37:48.814Z,99834.70
2019-04-29T15:40:20.753Z,99829.07
2019-04-29T15:42:53.537Z,99835.94
2019-04-29T15:45:28.027Z,99834.06
2019-04-29T15:47:57.435Z,99835.63
2019-04-29T15:50:27.701Z,99835.30
2019-04-29T15:52:58.777Z,99829.31
2019-04-29T15:55:29.679Z,99833.05
2019-04-29T15:58:00.191Z,99826.01
2019-04-29T16:00:36.544Z,99818.47
2019-04-29T16:03:02.880Z,99828.58
2019-04-29T16:05:34.884Z,99827.21
2019-04-29T16:08:22.821Z,99825.03
2019-04-29T16:11:01.117Z,99824.86
2019-04-29T16:13:31.694Z,99828.62
2019-04-29T16:16:01.819Z,99815.95
2019-04-29T16:18:32.123Z,99822.98
2019-04-29T16:21:02.502Z,99816.83
2019-04-29T16:23:32.715Z,99817.84
2019-04-29T16:26:04.967Z,99812.73
2019-04-29T16:28:39.964Z,99811.50
2019-04-29T16:31:12.241Z,99812.19
2019-04-29T16:33:39.491Z,99808.78
2019-04-29T16:36:09.837Z,99808.41
2019-04-29T16:38:40.222Z,99812.52
2019-04-29T16:41:27.527Z,99813.25
2019-04-29T16:43:58.486Z,99808.93
2019-04-29T16:46:37.331Z,99803.66
2019-04-29T16:49:02.295Z,99804.14
2019-04-29T16:51:32.916Z,99812.52
2019-04-29T16:54:03.531Z,99809.27
2019-04-29T16:56:34.077Z,99805.84
2019-04-29T16:59:09.263Z,99802.42
2019-04-29T17:01:35.762Z,99800.65
2019-04-29T17:04:05.840Z,99809.00
2019-04-29T17:06:40.946Z,99805.57
2019-04-29T17:09:09.722Z,99806.52
2019-04-29T17:11:44.416Z,99806.94
2019-04-29T17:14:14.945Z,99805.43
2019-04-29T17:16:45.302Z,99802.98
2019-04-29T17:19:15.105Z,99803.30
2019-04-29T17:21:45.138Z,99805.10
2019-04-29T17:24:15.318Z,99801.98
2019-04-29T17:26:54.989Z,99795.98
2019-04-29T17:29:39.088Z,99802.64
2019-04-29T17:32:08.311Z,99790.39
2019-04-29T17:34:58.087Z,99795.12
2019-04-29T17:37:12.011Z,99796.35
2019-04-29T17:39:42.380Z,99791.16
2019-04-29T17:42:13.171Z,99795.17
2019-04-29T17:44:45.001Z,99789.97
2019-04-29T17:47:22.448Z,99797.45
2019-04-29T17:49:55.207Z,99801.30
2019-04-29T17:52:27.216Z,99799.39
2019-04-29T17:55:12.384Z,99796.95
2019-04-29T17:57:54.476Z,99796.36
2019-04-29T18:00:41.387Z,99804.61
2019-04-29T18:03:22.466Z,99804.17
2019-04-29T18:05:57.599Z,99804.57
2019-04-29T18:08:31.518Z,99810.73
2019-04-29T18:11:06.567Z,99813.55
2019-04-29T18:13:35.640Z,99819.13
2019-04-29T18:16:17.430Z,99814.97
2019-04-29T18:18:46.675Z,99813.85
2019-04-29T18:21:31.704Z,99822.11
2019-04-29T18:24:05.008Z,99822.98
2019-04-29T18:26:44.243Z,99821.75
2019-04-29T18:29:16.161Z,99813.56
2019-04-29T18:31:47.141Z,99821.53
2019-04-29T18:34:17.677Z,99824.38
2019-04-29T18:36:48.171Z,99823.67
2019-04-29T18:39:24.210Z,99826.52
2019-04-29T18:41:52.378Z,99828.48
2019-04-29T18:44:22.307Z,99823.85
2019-04-29T18:46:53.778Z,99829.98
2019-04-29T18:49:25.825Z,99826.70
2019-04-29T18:51:57.875Z,99826.70
2019-04-29T18:54:27.754Z,99825.50
2019-04-29T18:56:58.342Z,99837.43
2019-04-29T18:59:33.501Z,99834.00
2019-04-29T19:02:00.931Z,99833.29
2019-04-29T19:04:39.402Z,99841.80
2019-04-29T19:07:09.175Z,99834.66
2019-04-29T19:09:39.749Z,99844.42
2019-04-29T19:12:09.110Z,99837.06
2019-04-29T19:14:38.751Z,99840.55
2019-04-29T19:17:08.696Z,99846.59
2019-04-29T19:19:39.454Z,99847.31
2019-04-29T19:22:09.661Z,99847.02
2019-04-29T19:24:39.423Z,99847.76
2019-04-29T19:27:10.022Z,99857.08
2019-04-29T19:29:43.341Z,99857.45
2019-04-29T19:32:11.247Z,99861.22
2019-04-29T19:34:43.293Z,99871.41
2019-04-29T19:37:11.814Z,99864.69
2019-04-29T19:39:41.525Z,99875.95
2019-04-29T19:42:10.935Z,99882.30
2019-04-29T19:44:40.285Z,99873.20
2019-04-29T19:47:10.823Z,99884.44
2019-04-29T19:49:44.664Z,99887.09
2019-04-29T19:52:12.279Z,99885.55
2019-04-29T19:54:42.189Z,99878.52
2019-04-29T19:57:11.680Z,99877.03
2019-04-29T19:59:51.983Z,99879.42
2019-04-29T20:02:19.807Z,99879.75
2019-04-29T20:05:00.870Z,99874.95
2019-04-29T20:07:31.679Z,99871.12
2019-04-29T20:10:05.326Z,99875.72
2019-04-29T20:12:33.308Z,99873.37
2019-04-29T20:15:07.719Z,99877.36
2019-04-29T20:17:47.103Z,99874.83
2019-04-29T20:20:17.842Z,99874.64
2019-04-29T20:22:51.051Z,99872.56
2019-04-29T20:25:29.154Z,99870.98
2019-04-29T20:28:02.664Z,99872.72
2019-04-29T20:30:22.176Z,99874.73
2019-04-29T20:32:51.679Z,99875.22
2019-04-29T20:35:21.457Z,99875.06
2019-04-29T20:37:55.731Z,99873.86
2019-04-29T20:40:22.389Z,99874.73
2019-04-29T20:42:52.086Z,99877.63
2019-04-29T20:45:25.470Z,99874.42
2019-04-29T20:47:52.446Z,99875.87
2019-04-29T20:50:22.086Z,99872.67
2019-04-29T20:52:59.093Z,99874.69
2019-04-29T20:55:24.236Z,99873.11
2019-04-29T20:57:54.094Z,99868.77
2019-04-29T21:00:24.952Z,99866.13
2019-04-29T21:02:54.584Z,99865.56
2019-04-29T21:05:26.882Z,99858.61
2019-04-29T21:08:03.038Z,99868.84
2019-04-29T21:10:27.402Z,99864.63
2019-04-29T21:12:59.508Z,99851.75
2019-04-29T21:15:36.227Z,99841.58
2019-04-29T21:18:06.050Z,99838.94
2019-04-29T21:20:35.363Z,99836.05
2019-04-29T21:23:05.557Z,99838.59
2019-04-29T21:25:35.645Z,99843.69
2019-04-29T21:28:06.028Z,99851.00
2019-04-29T21:30:42.345Z,99860.77
2019-04-29T21:33:08.218Z,99855.88
2019-04-29T21:35:41.763Z,99860.91
2019-04-29T21:38:17.859Z,99856.49
2019-04-29T21:40:47.779Z,99857.47
2019-04-29T21:43:21.498Z,99852.19
2019-04-29T21:45:50.943Z,99856.89
2019-04-29T21:48:25.656Z,99850.97
2019-04-29T21:50:51.203Z,99854.91
2019-04-29T21:53:20.435Z,99845.16
2019-04-29T21:55:49.830Z,99852.67
2019-04-29T21:58:19.248Z,99847.05
2019-04-29T22:00:48.809Z,99843.16
2019-04-29T22:03:19.868Z,99837.82
2019-04-29T22:05:53.558Z,99839.33
2019-04-29T22:08:25.089Z,99834.61
2019-04-29T22:10:51.344Z,99832.39
2019-04-29T22:13:20.630Z,99843.02
2019-04-29T22:15:49.785Z,99834.82
2019-04-29T22:18:19.071Z,99837.02
2019-04-29T22:20:48.333Z,99840.69
2019-04-29T22:23:17.760Z,99836.61
2019-04-29T22:25:47.261Z,99836.75
2019-04-29T22:28:19.802Z,99837.97
2019-04-29T22:30:49.808Z,99844.33
2019-04-29T22:33:18.884Z,99839.88
2019-04-29T22:35:48.163Z,99839.88
2019-04-29T22:38:18.714Z,99837.65
2019-04-29T22:40:49.170Z,99838.43
2019-04-29T22:43:20.068Z,99840.51
2019-04-29T22:45:49.318Z,99842.83
2019-04-29T22:48:19.850Z,99840.25
2019-04-29T22:50:49.100Z,99843.66
2019-04-29T22:53:18.342Z,99848.41
2019-04-29T22:55:47.535Z,99847.05
2019-04-29T22:58:16.697Z,99847.53
2019-04-29T23:00:45.911Z,99841.52
2019-04-29T23:03:15.129Z,99837.94
2019-04-29T23:05:46.127Z,99833.72
2019-04-29T23:08:15.493Z,99833.28
2019-04-29T23:10:45.622Z,99835.71
2019-04-29T23:13:15.062Z,99841.14
2019-04-29T23:15:45.508Z,99850.11
2019-04-29T23:18:24.260Z,99836.84
2019-04-29T23:20:50.246Z,99835.13
2019-04-29T23:23:21.091Z,99832.87
2019-04-29T23:25:51.894Z,99830.68
2019-04-29T23:28:22.545Z,99830.77
2019-04-29T23:30:53.444Z,99831.68
2019-04-29T23:33:24.054Z,99831.04
2019-04-29T23:35:55.956Z,99830.78
2019-04-29T23:38:25.568Z,99829.62
2019-04-29T23:40:56.426Z,99825.13
2019-04-29T23:43:28.417Z,99814.97
2019-04-29T23:46:00.375Z,99816.33
2019-04-29T23:48:38.891Z,99817.95
2019-04-29T23:50:59.448Z,99818.48
2019-04-29T23:53:28.732Z,99819.12
2019-04-29T23:56:00.261Z,99822.67
2019-04-29T23:58:37.236Z,99827.13
